Time;durP1;ratioP1;P1;durP2;ratioP2;P2;SDS_P1;SDS_P2;PMS_P1;PMS_P2;Temp;Humidity;BMP_temperature;BMP_pressure;BME280_temperature;BME280_humidity;BME280_pressure;Samples;Min_cycle;Max_cycle;Signal;HPM_P1;HPM_P2
2021/07/18 00:01:38;;;;;;;17.52;14.73;;;;;;;;;;5070327;28;20059;-69
2021/07/18 00:04:05;;;;;;;17.42;13.70;;;;;;;;;;5063853;28;20041;-69
2021/07/18 00:06:31;;;;;;;20.55;14.88;;;;;;;;;;5070919;28;20057;-69
2021/07/18 00:08:58;;;;;;;17.27;13.43;;;;;;;;;;5070920;28;20048;-69
2021/07/18 00:11:24;;;;;;;19.52;14.77;;;;;;;;;;5070251;28;20079;-69
2021/07/18 00:13:51;;;;;;;18.05;15.30;;;;;;;;;;5070584;28;20049;-69
2021/07/18 00:16:17;;;;;;;19.35;14.10;;;;;;;;;;5070180;28;20052;-69
2021/07/18 00:18:45;;;;;;;18.40;13.55;;;;;;;;;;5069930;28;20053;-69
2021/07/18 00:21:12;;;;;;;18.92;13.25;;;;;;;;;;5070062;28;20053;-69
2021/07/18 00:23:38;;;;;;;15.82;13.57;;;;;;;;;;5070766;28;20384;-69
2021/07/18 00:26:05;;;;;;;18.38;13.88;;;;;;;;;;5071424;28;20055;-69
2021/07/18 00:28:31;;;;;;;16.55;13.75;;;;;;;;;;5073919;28;20052;-69
2021/07/18 00:30:58;;;;;;;18.65;13.32;;;;;;;;;;5074352;28;20052;-69
2021/07/18 00:33:25;;;;;;;20.27;15.32;;;;;;;;;;5069311;28;20075;-69
2021/07/18 00:35:52;;;;;;;18.20;13.25;;;;;;;;;;5074494;28;20049;-69
2021/07/18 00:38:19;;;;;;;14.77;12.25;;;;;;;;;;5073991;28;20048;-69
2021/07/18 00:40:45;;;;;;;19.42;12.90;;;;;;;;;;5074020;28;20661;-69
2021/07/18 00:43:12;;;;;;;15.07;12.65;;;;;;;;;;5073562;28;20135;-68
2021/07/18 00:45:38;;;;;;;19.95;13.77;;;;;;;;;;5067154;28;20473;-69
2021/07/18 00:48:06;;;;;;;17.42;12.88;;;;;;;;;;5072110;28;20474;-69
2021/07/18 00:50:33;;;;;;;19.63;13.55;;;;;;;;;;5074239;28;20102;-69
2021/07/18 00:53:01;;;;;;;19.70;13.02;;;;;;;;;;5073779;28;20091;-69
2021/07/18 00:55:28;;;;;;;15.80;12.55;;;;;;;;;;5067100;28;20059;-69
2021/07/18 00:57:54;;;;;;;17.40;13.32;;;;;;;;;;5073891;28;20052;-69
2021/07/18 01:00:21;;;;;;;18.13;12.15;;;;;;;;;;5073933;28;20453;-69
2021/07/18 01:02:48;;;;;;;17.70;11.68;;;;;;;;;;5073974;28;20048;-69
2021/07/18 01:05:15;;;;;;;18.02;12.55;;;;;;;;;;5073856;28;20055;-69
2021/07/18 01:07:42;;;;;;;22.48;12.85;;;;;;;;;;5073466;28;20056;-69
2021/07/18 01:10:11;;;;;;;13.18;11.45;;;;;;;;;;5073481;28;20048;-69
2021/07/18 01:12:38;;;;;;;16.50;11.15;;;;;;;;;;5062101;28;20052;-69
2021/07/18 01:15:05;;;;;;;14.95;11.50;;;;;;;;;;5073438;28;20048;-69
2021/07/18 01:17:32;;;;;;;16.15;10.95;;;;;;;;;;5073547;28;20056;-69
2021/07/18 01:19:59;;;;;;;15.40;10.38;;;;;;;;;;5073323;28;20060;-69
2021/07/18 01:22:27;;;;;;;15.60;10.82;;;;;;;;;;5073456;28;20053;-69
2021/07/18 01:24:54;;;;;;;20.95;12.10;;;;;;;;;;5073394;28;20048;-69
2021/07/18 01:27:20;;;;;;;14.55;10.55;;;;;;;;;;5073642;28;20400;-69
2021/07/18 01:29:46;;;;;;;13.82;10.63;;;;;;;;;;5073136;28;20500;-69
2021/07/18 01:32:13;;;;;;;13.65;10.18;;;;;;;;;;5073358;28;20072;-69
2021/07/18 01:34:39;;;;;;;16.45;10.88;;;;;;;;;;5073419;28;20041;-70
2021/07/18 01:37:06;;;;;;;13.93;9.70;;;;;;;;;;5073367;28;20553;-68
2021/07/18 01:39:34;;;;;;;16.80;11.48;;;;;;;;;;5073192;28;20045;-69
2021/07/18 01:42:00;;;;;;;15.30;10.35;;;;;;;;;;5072563;28;20049;-69
2021/07/18 01:44:27;;;;;;;14.32;9.63;;;;;;;;;;5073034;28;20053;-69
2021/07/18 01:46:53;;;;;;;14.43;10.68;;;;;;;;;;5071726;28;20477;-70
2021/07/18 01:49:20;;;;;;;14.40;10.30;;;;;;;;;;5073070;28;20052;-69
2021/07/18 01:51:46;;;;;;;11.80;8.50;;;;;;;;;;5072704;28;20049;-70
2021/07/18 01:54:13;;;;;;;13.30;9.35;;;;;;;;;;5072448;28;20045;-70
2021/07/18 01:56:42;;;;;;;17.52;10.65;;;;;;;;;;5072733;28;20421;-69
2021/07/18 01:59:09;;;;;;;11.60;8.95;;;;;;;;;;5072620;28;20056;-69
2021/07/18 02:01:36;;;;;;;13.95;9.88;;;;;;;;;;5072964;28;20056;-69
2021/07/18 02:04:03;;;;;;;14.45;8.90;;;;;;;;;;5072779;28;20052;-69
2021/07/18 02:06:31;;;;;;;15.27;8.82;;;;;;;;;;5073015;28;20052;-70
2021/07/18 02:08:58;;;;;;;12.75;9.00;;;;;;;;;;5072353;28;20063;-69
2021/07/18 02:11:26;;;;;;;13.52;9.07;;;;;;;;;;5072593;28;20048;-69
2021/07/18 02:13:55;;;;;;;13.82;9.05;;;;;;;;;;5072089;28;20053;-70
2021/07/18 02:16:22;;;;;;;11.98;8.30;;;;;;;;;;5073079;28;20056;-69
2021/07/18 02:18:49;;;;;;;12.88;8.82;;;;;;;;;;5072096;28;20505;-69
2021/07/18 02:21:17;;;;;;;12.55;8.07;;;;;;;;;;5072449;28;20076;-70
2021/07/18 02:23:43;;;;;;;13.60;8.88;;;;;;;;;;5071922;28;20036;-69
2021/07/18 02:26:10;;;;;;;12.85;8.65;;;;;;;;;;5071984;28;20483;-69
2021/07/18 02:28:37;;;;;;;11.50;8.40;;;;;;;;;;5071995;28;20377;-70
2021/07/18 02:31:06;;;;;;;16.30;8.27;;;;;;;;;;5072451;28;20048;-70
2021/07/18 02:33:33;;;;;;;12.50;8.02;;;;;;;;;;5071979;28;20044;-70
2021/07/18 02:36:00;;;;;;;16.00;8.23;;;;;;;;;;5072073;28;20055;-70
2021/07/18 02:38:26;;;;;;;10.98;7.03;;;;;;;;;;5072264;28;20064;-70
2021/07/18 02:40:53;;;;;;;11.20;7.20;;;;;;;;;;5071918;28;20048;-69
2021/07/18 02:43:19;;;;;;;8.68;6.60;;;;;;;;;;5071829;28;20041;-69
2021/07/18 02:45:46;;;;;;;11.45;6.47;;;;;;;;;;5072342;28;20127;-69
2021/07/18 02:48:14;;;;;;;12.18;7.35;;;;;;;;;;5071683;28;20045;-69
2021/07/18 02:50:40;;;;;;;9.90;6.80;;;;;;;;;;5051458;28;20064;-69
2021/07/18 02:53:07;;;;;;;13.20;6.90;;;;;;;;;;5065838;28;20481;-69
2021/07/18 02:55:33;;;;;;;10.30;6.28;;;;;;;;;;5071508;28;20059;-69
2021/07/18 02:58:00;;;;;;;13.77;7.40;;;;;;;;;;5071533;28;20060;-69
2021/07/18 03:00:27;;;;;;;11.65;6.95;;;;;;;;;;5071645;28;20053;-69
2021/07/18 03:02:53;;;;;;;12.00;6.38;;;;;;;;;;5071575;28;20040;-69
2021/07/18 03:05:22;;;;;;;12.68;6.07;;;;;;;;;;5071612;28;20045;-69
2021/07/18 03:07:48;;;;;;;11.65;6.18;;;;;;;;;;5071490;28;20063;-69
2021/07/18 03:10:17;;;;;;;9.60;6.43;;;;;;;;;;5071856;28;20059;-69
2021/07/18 03:12:44;;;;;;;12.02;6.82;;;;;;;;;;5071671;28;20058;-69
2021/07/18 03:15:12;;;;;;;9.75;6.50;;;;;;;;;;5071447;28;20040;-69
2021/07/18 03:17:38;;;;;;;11.85;6.53;;;;;;;;;;5071419;28;20048;-69
2021/07/18 03:20:06;;;;;;;9.98;5.93;;;;;;;;;;5071449;28;20063;-69
2021/07/18 03:22:34;;;;;;;11.60;6.70;;;;;;;;;;5071436;28;20051;-69
2021/07/18 03:25:00;;;;;;;10.40;6.07;;;;;;;;;;5071275;28;20040;-69
2021/07/18 03:27:27;;;;;;;8.95;6.03;;;;;;;;;;5071008;28;20056;-69
2021/07/18 03:29:53;;;;;;;10.05;5.88;;;;;;;;;;5071530;28;20052;-69
2021/07/18 03:32:19;;;;;;;8.52;6.07;;;;;;;;;;5071670;28;20048;-69
2021/07/18 03:34:47;;;;;;;11.82;8.07;;;;;;;;;;5071435;28;20659;-69
2021/07/18 03:37:13;;;;;;;10.45;6.55;;;;;;;;;;5071328;28;20058;-69
2021/07/18 03:39:41;;;;;;;8.27;5.85;;;;;;;;;;5071252;28;20064;-69
2021/07/18 03:42:08;;;;;;;8.63;5.43;;;;;;;;;;5070915;28;20055;-69
2021/07/18 03:44:34;;;;;;;9.02;6.20;;;;;;;;;;5071052;28;20056;-69
2021/07/18 03:47:00;;;;;;;10.05;6.22;;;;;;;;;;5071085;28;20052;-69
2021/07/18 03:49:27;;;;;;;9.57;5.88;;;;;;;;;;5070629;28;20059;-69
2021/07/18 03:51:53;;;;;;;8.98;5.35;;;;;;;;;;5070794;28;20060;-69
2021/07/18 03:54:20;;;;;;;8.32;5.85;;;;;;;;;;5071244;28;20068;-69
2021/07/18 03:56:48;;;;;;;10.20;5.82;;;;;;;;;;5070725;28;20088;-69
2021/07/18 03:59:15;;;;;;;12.73;5.70;;;;;;;;;;5071345;28;20045;-69
2021/07/18 04:01:41;;;;;;;9.65;5.40;;;;;;;;;;5072482;28;20052;-69
2021/07/18 04:04:08;;;;;;;9.90;6.00;;;;;;;;;;5074898;28;20063;-69
2021/07/18 04:06:34;;;;;;;12.48;6.22;;;;;;;;;;5075170;28;20044;-69
2021/07/18 04:09:01;;;;;;;9.15;5.13;;;;;;;;;;5074850;28;20056;-69
2021/07/18 04:11:27;;;;;;;10.20;5.47;;;;;;;;;;5074790;28;20048;-69
2021/07/18 04:13:55;;;;;;;7.32;4.88;;;;;;;;;;5074613;28;20053;-69
2021/07/18 04:16:21;;;;;;;6.00;4.75;;;;;;;;;;5074605;28;20052;-69
2021/07/18 04:18:48;;;;;;;9.50;4.72;;;;;;;;;;5074222;28;20057;-69
2021/07/18 04:21:19;;;;;;;9.32;4.50;;;;;;;;;;5075009;28;20049;-69
2021/07/18 04:23:45;;;;;;;10.52;5.68;;;;;;;;;;5074610;28;20036;-69
2021/07/18 04:26:12;;;;;;;10.93;5.43;;;;;;;;;;5074849;28;20503;-69
2021/07/18 04:28:38;;;;;;;22.38;7.03;;;;;;;;;;5074839;28;20044;-69
2021/07/18 04:31:06;;;;;;;9.93;4.75;;;;;;;;;;5074769;28;20052;-69
2021/07/18 04:33:32;;;;;;;14.60;4.85;;;;;;;;;;5074408;28;20059;-69
2021/07/18 04:35:59;;;;;;;9.50;4.20;;;;;;;;;;5074532;28;20048;-69
2021/07/18 04:38:25;;;;;;;8.77;4.47;;;;;;;;;;5073854;28;20487;-69
2021/07/18 04:40:52;;;;;;;9.23;4.78;;;;;;;;;;5074376;28;20052;-69
2021/07/18 04:43:18;;;;;;;8.95;4.47;;;;;;;;;;5074149;28;20048;-69
2021/07/18 04:45:45;;;;;;;6.47;4.45;;;;;;;;;;5074178;28;20052;-69
2021/07/18 04:48:13;;;;;;;5.82;3.60;;;;;;;;;;5074131;28;20063;-69
2021/07/18 04:50:39;;;;;;;9.50;4.18;;;;;;;;;;5074087;28;20087;-69
2021/07/18 04:53:06;;;;;;;6.32;4.45;;;;;;;;;;5073940;28;20044;-69
2021/07/18 04:55:33;;;;;;;6.93;3.70;;;;;;;;;;5074066;28;20066;-69
2021/07/18 04:57:59;;;;;;;7.22;4.20;;;;;;;;;;5073626;28;20080;-69
2021/07/18 05:00:25;;;;;;;8.52;3.78;;;;;;;;;;5074006;28;20052;-69
2021/07/18 05:02:52;;;;;;;10.80;4.45;;;;;;;;;;5073397;28;20048;-69
2021/07/18 05:05:20;;;;;;;5.38;3.35;;;;;;;;;;5073598;28;20048;-69
2021/07/18 05:07:50;;;;;;;6.18;4.03;;;;;;;;;;5073897;28;20413;-69
2021/07/18 05:10:18;;;;;;;11.50;3.78;;;;;;;;;;5074373;28;20052;-69
2021/07/18 05:12:44;;;;;;;13.50;4.10;;;;;;;;;;5073334;28;20056;-70
2021/07/18 05:15:11;;;;;;;9.75;3.83;;;;;;;;;;5073364;28;20509;-70
2021/07/18 05:17:38;;;;;;;10.07;3.50;;;;;;;;;;5073582;28;20048;-70
2021/07/18 05:20:05;;;;;;;10.65;3.45;;;;;;;;;;5073555;28;20413;-70
2021/07/18 05:22:33;;;;;;;6.38;3.63;;;;;;;;;;5073576;28;20067;-70
2021/07/18 05:25:00;;;;;;;6.25;3.38;;;;;;;;;;5073532;28;20541;-70
2021/07/18 05:27:27;;;;;;;8.25;2.90;;;;;;;;;;5073374;28;20056;-69
2021/07/18 05:29:53;;;;;;;9.35;3.28;;;;;;;;;;5073634;28;20055;-69
2021/07/18 05:32:20;;;;;;;6.63;3.20;;;;;;;;;;5073219;28;20045;-69
2021/07/18 05:34:46;;;;;;;7.15;3.13;;;;;;;;;;5073257;28;20060;-70
2021/07/18 05:37:13;;;;;;;8.07;3.60;;;;;;;;;;5073586;28;20045;-70
2021/07/18 05:39:41;;;;;;;8.13;3.00;;;;;;;;;;5073355;28;20055;-69
2021/07/18 05:42:07;;;;;;;7.63;2.70;;;;;;;;;;5072810;28;20053;-69
2021/07/18 05:44:34;;;;;;;9.35;4.03;;;;;;;;;;5072777;28;20044;-69
2021/07/18 05:47:01;;;;;;;8.75;3.42;;;;;;;;;;5072738;28;20102;-69
2021/07/18 05:49:27;;;;;;;5.63;2.90;;;;;;;;;;5072888;28;20048;-69
2021/07/18 05:51:54;;;;;;;8.35;2.97;;;;;;;;;;5072852;28;20048;-69
2021/07/18 05:54:20;;;;;;;5.47;3.10;;;;;;;;;;5072562;28;20052;-69
2021/07/18 05:56:48;;;;;;;7.38;2.75;;;;;;;;;;5073179;28;20064;-69
2021/07/18 05:59:15;;;;;;;5.05;2.72;;;;;;;;;;5073203;28;20401;-69
2021/07/18 06:01:41;;;;;;;4.35;3.13;;;;;;;;;;5072972;28;20061;-69
2021/07/18 06:04:08;;;;;;;5.57;2.83;;;;;;;;;;5072736;28;20053;-69
2021/07/18 06:06:34;;;;;;;6.50;2.75;;;;;;;;;;5072839;28;20049;-69
2021/07/18 06:09:00;;;;;;;7.75;3.28;;;;;;;;;;5054898;28;20052;-69
2021/07/18 06:11:27;;;;;;;6.55;3.30;;;;;;;;;;5072584;28;20052;-69
2021/07/18 06:13:55;;;;;;;7.53;2.70;;;;;;;;;;5072643;28;20045;-69
2021/07/18 06:16:21;;;;;;;7.63;2.83;;;;;;;;;;5072603;28;20425;-69
2021/07/18 06:18:48;;;;;;;7.35;3.58;;;;;;;;;;5072418;28;20052;-69
2021/07/18 06:21:15;;;;;;;5.78;2.83;;;;;;;;;;5072194;28;20044;-69
2021/07/18 06:23:42;;;;;;;4.90;2.85;;;;;;;;;;5070996;28;20048;-69
2021/07/18 06:26:08;;;;;;;6.20;2.63;;;;;;;;;;5072207;28;20364;-69
2021/07/18 06:28:35;;;;;;;7.40;2.78;;;;;;;;;;5072114;28;20059;-70
2021/07/18 06:31:03;;;;;;;6.25;2.83;;;;;;;;;;5072432;28;20048;-69
2021/07/18 06:33:29;;;;;;;13.05;4.63;;;;;;;;;;5072239;28;20044;-70
2021/07/18 06:35:56;;;;;;;9.25;2.75;;;;;;;;;;5072402;28;20044;-69
2021/07/18 06:38:22;;;;;;;5.22;2.78;;;;;;;;;;5072196;28;20397;-69
2021/07/18 06:40:49;;;;;;;6.78;2.83;;;;;;;;;;5072026;28;20378;-70
2021/07/18 06:43:15;;;;;;;6.47;2.97;;;;;;;;;;5071823;28;20049;-69
2021/07/18 06:45:42;;;;;;;8.77;2.90;;;;;;;;;;5067848;28;20044;-70
2021/07/18 06:48:10;;;;;;;6.78;2.40;;;;;;;;;;5071558;28;20059;-70
2021/07/18 06:50:37;;;;;;;6.63;2.63;;;;;;;;;;5071821;28;20076;-70
2021/07/18 06:53:03;;;;;;;6.07;2.40;;;;;;;;;;5071773;28;20048;-70
2021/07/18 06:55:30;;;;;;;5.95;3.38;;;;;;;;;;5071779;28;20049;-70
2021/07/18 06:57:56;;;;;;;6.55;3.70;;;;;;;;;;5071718;28;20059;-70
2021/07/18 07:00:23;;;;;;;6.55;3.35;;;;;;;;;;5071639;28;20060;-70
2021/07/18 07:02:50;;;;;;;6.95;3.03;;;;;;;;;;5071790;28;20059;-70
2021/07/18 07:05:17;;;;;;;9.50;2.42;;;;;;;;;;5071550;28;20045;-70
2021/07/18 07:07:47;;;;;;;8.13;3.50;;;;;;;;;;5071705;28;20056;-70
2021/07/18 07:10:14;;;;;;;6.13;2.53;;;;;;;;;;5071504;28;20045;-69
2021/07/18 07:12:41;;;;;;;5.07;3.05;;;;;;;;;;5071502;28;20053;-69
2021/07/18 07:15:10;;;;;;;4.25;2.65;;;;;;;;;;5070208;28;20057;-70
2021/07/18 07:17:37;;;;;;;9.32;4.80;;;;;;;;;;5059147;28;20052;-69
2021/07/18 07:20:05;;;;;;;6.43;3.17;;;;;;;;;;5067457;28;20091;-70
2021/07/18 07:22:34;;;;;;;12.00;3.58;;;;;;;;;;5071475;28;20051;-70
2021/07/18 07:25:01;;;;;;;6.03;2.80;;;;;;;;;;5071410;28;20483;-69
2021/07/18 07:27:27;;;;;;;8.98;2.90;;;;;;;;;;5071637;28;20485;-70
2021/07/18 07:29:53;;;;;;;8.73;3.42;;;;;;;;;;5071344;28;20488;-70
2021/07/18 07:32:20;;;;;;;7.88;3.30;;;;;;;;;;5070346;28;20048;-70
2021/07/18 07:34:47;;;;;;;6.53;3.47;;;;;;;;;;5070380;28;20055;-70
2021/07/18 07:37:13;;;;;;;5.93;3.42;;;;;;;;;;5074318;28;20053;-70
2021/07/18 07:39:41;;;;;;;7.20;3.22;;;;;;;;;;5074009;28;20052;-70
2021/07/18 07:42:08;;;;;;;8.52;3.78;;;;;;;;;;5074313;28;20381;-70
2021/07/18 07:44:34;;;;;;;7.13;2.92;;;;;;;;;;5074597;28;20487;-70
2021/07/18 07:47:01;;;;;;;7.57;3.22;;;;;;;;;;5072992;28;20413;-70
2021/07/18 07:49:28;;;;;;;6.97;3.67;;;;;;;;;;5073886;28;20044;-70
2021/07/18 07:51:54;;;;;;;7.45;3.92;;;;;;;;;;5074031;28;20072;-70
2021/07/18 07:54:21;;;;;;;6.60;2.97;;;;;;;;;;5073383;28;20500;-70
2021/07/18 07:56:49;;;;;;;6.22;3.13;;;;;;;;;;5074106;28;20421;-70
2021/07/18 07:59:15;;;;;;;8.13;3.60;;;;;;;;;;5073850;28;20044;-70
2021/07/18 08:01:42;;;;;;;6.68;3.70;;;;;;;;;;5073401;28;20072;-70
2021/07/18 08:04:08;;;;;;;8.25;3.70;;;;;;;;;;5073708;28;20466;-70
2021/07/18 08:06:34;;;;;;;10.20;3.80;;;;;;;;;;5074935;28;20062;-72
2021/07/18 08:09:01;;;;;;;8.25;4.00;;;;;;;;;;5074614;28;20056;-70
2021/07/18 08:11:27;;;;;;;9.25;4.60;;;;;;;;;;5074394;28;20045;-70
2021/07/18 08:13:55;;;;;;;7.85;4.32;;;;;;;;;;5074579;28;20055;-70
2021/07/18 08:16:22;;;;;;;10.52;4.43;;;;;;;;;;5074552;28;20044;-70
2021/07/18 08:18:48;;;;;;;10.10;4.50;;;;;;;;;;5074746;28;20052;-70
2021/07/18 08:21:15;;;;;;;7.93;4.00;;;;;;;;;;5074167;28;20048;-70
2021/07/18 08:23:41;;;;;;;8.13;4.15;;;;;;;;;;5075035;28;20472;-70
2021/07/18 08:26:08;;;;;;;10.40;4.43;;;;;;;;;;5073697;28;20401;-70
2021/07/18 08:28:38;;;;;;;10.27;4.80;;;;;;;;;;5074542;28;20397;-70
2021/07/18 08:31:06;;;;;;;10.23;4.55;;;;;;;;;;5074481;28;20091;-70
2021/07/18 08:33:32;;;;;;;7.47;3.85;;;;;;;;;;5074318;28;20413;-70
2021/07/18 08:35:59;;;;;;;7.20;4.38;;;;;;;;;;5074524;28;20045;-70
2021/07/18 08:38:25;;;;;;;7.72;5.22;;;;;;;;;;5074167;28;20048;-70
2021/07/18 08:40:53;;;;;;;7.57;4.65;;;;;;;;;;5074487;28;20059;-70
2021/07/18 08:43:20;;;;;;;8.85;4.60;;;;;;;;;;5073774;28;20048;-70
2021/07/18 08:45:47;;;;;;;8.60;4.93;;;;;;;;;;5074204;28;20451;-70
2021/07/18 08:48:15;;;;;;;8.27;5.68;;;;;;;;;;5073405;28;20456;-70
2021/07/18 08:50:41;;;;;;;8.88;4.90;;;;;;;;;;5074062;28;20053;-70
2021/07/18 08:53:08;;;;;;;8.35;5.22;;;;;;;;;;5073675;28;20044;-70
2021/07/18 08:55:35;;;;;;;9.18;5.15;;;;;;;;;;5073543;28;20052;-70
2021/07/18 08:58:01;;;;;;;8.05;5.32;;;;;;;;;;5073792;28;20053;-71
2021/07/18 09:00:28;;;;;;;8.32;5.82;;;;;;;;;;5074126;28;20059;-70
2021/07/18 09:02:54;;;;;;;10.20;5.93;;;;;;;;;;5073939;28;20052;-70
2021/07/18 09:05:22;;;;;;;9.68;6.38;;;;;;;;;;5073987;28;20041;-70
2021/07/18 09:07:51;;;;;;;8.63;6.75;;;;;;;;;;5073745;28;20052;-70
2021/07/18 09:10:21;;;;;;;8.50;6.45;;;;;;;;;;5073933;28;20472;-70
2021/07/18 09:13:02;;;;;;;11.80;7.60;;;;;;;;;;5073760;28;20048;-69
2021/07/18 09:15:39;;;;;;;10.07;6.35;;;;;;;;;;5073609;28;20052;-70
2021/07/18 09:18:08;;;;;;;11.00;6.53;;;;;;;;;;5073367;28;20141;-70
2021/07/18 09:20:40;;;;;;;10.15;7.28;;;;;;;;;;5071717;28;20512;-70
2021/07/18 09:23:10;;;;;;;8.20;6.95;;;;;;;;;;5071069;28;20394;-70
2021/07/18 09:25:37;;;;;;;9.02;6.68;;;;;;;;;;5072702;28;20112;-70
2021/07/18 09:28:11;;;;;;;10.27;7.35;;;;;;;;;;5071173;28;20048;-70
2021/07/18 09:30:38;;;;;;;10.82;6.60;;;;;;;;;;5073325;28;20044;-70
2021/07/18 09:33:04;;;;;;;8.60;6.90;;;;;;;;;;5072894;28;20049;-70
2021/07/18 09:35:31;;;;;;;11.85;6.15;;;;;;;;;;5072924;28;20383;-70
2021/07/18 09:37:58;;;;;;;10.05;5.80;;;;;;;;;;5071635;28;20063;-70
2021/07/18 09:40:27;;;;;;;8.52;6.22;;;;;;;;;;5073014;28;20556;-71
2021/07/18 09:42:56;;;;;;;9.10;5.88;;;;;;;;;;5073079;28;20521;-71
2021/07/18 09:45:23;;;;;;;8.07;6.32;;;;;;;;;;5072411;28;20114;-71
2021/07/18 09:47:59;;;;;;;11.05;7.53;;;;;;;;;;5071236;28;20064;-71
2021/07/18 09:50:28;;;;;;;9.07;7.20;;;;;;;;;;5072324;28;20048;-70
2021/07/18 09:53:10;;;;;;;10.23;7.28;;;;;;;;;;5072335;28;20048;-70
2021/07/18 09:55:37;;;;;;;12.82;7.72;;;;;;;;;;5072495;28;20044;-70
2021/07/18 09:58:04;;;;;;;8.88;7.30;;;;;;;;;;5072443;28;20044;-70
2021/07/18 10:00:39;;;;;;;9.20;7.70;;;;;;;;;;5071528;28;20052;-71
2021/07/18 10:03:11;;;;;;;9.75;7.57;;;;;;;;;;5070962;28;20049;-71
2021/07/18 10:05:38;;;;;;;9.77;7.32;;;;;;;;;;5069587;28;20056;-70
2021/07/18 10:08:06;;;;;;;11.38;7.80;;;;;;;;;;5072480;28;20462;-71
2021/07/18 10:10:34;;;;;;;11.68;8.27;;;;;;;;;;5072205;28;20052;-70
2021/07/18 10:13:01;;;;;;;11.32;9.32;;;;;;;;;;5072251;28;20049;-70
2021/07/18 10:15:28;;;;;;;13.52;8.80;;;;;;;;;;5071929;28;20044;-70
2021/07/18 10:17:56;;;;;;;9.95;8.68;;;;;;;;;;5071754;28;20048;-70
2021/07/18 10:20:23;;;;;;;11.50;9.73;;;;;;;;;;5072035;28;20055;-70
2021/07/18 10:22:50;;;;;;;9.77;8.57;;;;;;;;;;5071899;28;20378;-70
2021/07/18 10:25:18;;;;;;;11.80;10.07;;;;;;;;;;5071653;28;20056;-70
2021/07/18 10:27:44;;;;;;;11.25;9.23;;;;;;;;;;5071632;28;20048;-70
2021/07/18 10:30:13;;;;;;;11.73;9.18;;;;;;;;;;5071897;28;20127;-70
2021/07/18 10:32:40;;;;;;;12.77;9.32;;;;;;;;;;5069371;28;20048;-70
2021/07/18 10:35:09;;;;;;;13.95;9.57;;;;;;;;;;5071793;28;20051;-70
2021/07/18 10:37:39;;;;;;;12.57;9.65;;;;;;;;;;5071645;28;20083;-70
2021/07/18 10:40:12;;;;;;;16.55;10.32;;;;;;;;;;5071570;28;20053;-70
2021/07/18 10:42:40;;;;;;;13.32;9.15;;;;;;;;;;5069342;28;20051;-70
2021/07/18 10:45:17;;;;;;;11.82;9.70;;;;;;;;;;5071594;28;20058;-70
2021/07/18 10:47:58;;;;;;;11.93;9.55;;;;;;;;;;5069571;28;20048;-70
2021/07/18 10:50:49;;;;;;;12.77;9.63;;;;;;;;;;5070202;28;20058;-70
2021/07/18 10:53:21;;;;;;;11.63;9.60;;;;;;;;;;5068494;28;20059;-69
2021/07/18 10:55:48;;;;;;;13.63;9.52;;;;;;;;;;5072000;28;20049;-69
2021/07/18 10:58:51;;;;;;;15.10;10.68;;;;;;;;;;5071847;28;20048;-70
2021/07/18 11:01:38;;;;;;;10.93;9.02;;;;;;;;;;5071994;28;20493;-70
2021/07/18 11:04:07;;;;;;;11.85;9.82;;;;;;;;;;5071794;28;20048;-70
2021/07/18 11:06:36;;;;;;;13.90;9.82;;;;;;;;;;5071757;28;20049;-70
2021/07/18 11:09:11;;;;;;;13.30;9.65;;;;;;;;;;5071899;28;20063;-70
2021/07/18 11:11:39;;;;;;;12.23;9.18;;;;;;;;;;5066619;28;20052;-70
2021/07/18 11:14:31;;;;;;;10.65;9.38;;;;;;;;;;5053891;28;20055;-70
2021/07/18 11:16:59;;;;;;;11.02;8.82;;;;;;;;;;5069861;28;20040;-70
2021/07/18 11:20:00;;;;;;;13.20;9.90;;;;;;;;;;5060775;28;20067;-71
2021/07/18 11:22:57;;;;;;;11.80;9.23;;;;;;;;;;5050774;28;20087;-70
2021/07/18 11:25:40;;;;;;;;;;;;;;;;;;5051670;28;20391;-70
2021/07/18 11:28:51;;;;;;;11.30;9.20;;;;;;;;;;5050548;28;20007;-71
2021/07/18 11:31:38;;;;;;;12.48;9.23;;;;;;;;;;5050297;28;20132;-71
2021/07/18 11:34:10;;;;;;;11.20;9.75;;;;;;;;;;5067750;28;20053;-70
2021/07/18 11:36:54;;;;;;;12.95;9.90;;;;;;;;;;5068128;28;20853;-71
2021/07/18 11:39:23;;;;;;;13.57;9.82;;;;;;;;;;5070302;28;20080;-70
2021/07/18 11:41:52;;;;;;;17.60;9.95;;;;;;;;;;5067702;28;20564;-70
2021/07/18 11:44:23;;;;;;;13.02;10.13;;;;;;;;;;5070728;28;20099;-70
2021/07/18 11:46:52;;;;;;;11.25;9.93;;;;;;;;;;5070223;28;20052;-71
2021/07/18 11:49:19;;;;;;;11.32;9.57;;;;;;;;;;5069370;28;20076;-71
2021/07/18 11:51:48;;;;;;;13.95;9.63;;;;;;;;;;5070692;28;20082;-70
2021/07/18 11:54:15;;;;;;;13.55;10.27;;;;;;;;;;5071548;28;20082;-71
2021/07/18 11:56:43;;;;;;;14.00;10.00;;;;;;;;;;5071565;28;20080;-70
2021/07/18 11:59:11;;;;;;;13.45;9.27;;;;;;;;;;5070973;28;20504;-71
2021/07/18 12:01:39;;;;;;;10.18;9.05;;;;;;;;;;5070777;28;20425;-71
2021/07/18 12:04:08;;;;;;;11.43;9.48;;;;;;;;;;5071424;28;20059;-70
2021/07/18 12:06:36;;;;;;;12.20;10.20;;;;;;;;;;5070924;28;20039;-70
2021/07/18 12:09:14;;;;;;;12.82;9.82;;;;;;;;;;5071303;28;20048;-70
2021/07/18 12:11:41;;;;;;;11.23;10.02;;;;;;;;;;5071336;28;20049;-70
2021/07/18 12:14:08;;;;;;;11.90;9.43;;;;;;;;;;5070764;28;20405;-70
2021/07/18 12:16:36;;;;;;;12.88;9.77;;;;;;;;;;5070723;28;20134;-70
2021/07/18 12:19:03;;;;;;;12.65;9.40;;;;;;;;;;5070676;28;20044;-69
2021/07/18 12:21:32;;;;;;;10.82;9.73;;;;;;;;;;5071150;28;20418;-70
2021/07/18 12:24:13;;;;;;;11.10;9.93;;;;;;;;;;5073859;28;20088;-70
2021/07/18 12:26:40;;;;;;;12.45;9.90;;;;;;;;;;5074695;28;20041;-70
2021/07/18 12:29:08;;;;;;;14.00;9.88;;;;;;;;;;5074807;28;20050;-70
2021/07/18 12:31:35;;;;;;;12.52;9.80;;;;;;;;;;5074356;28;20053;-70
2021/07/18 12:34:02;;;;;;;11.60;9.50;;;;;;;;;;5074254;28;20084;-70
2021/07/18 12:36:28;;;;;;;10.95;9.50;;;;;;;;;;5074228;28;20052;-70
2021/07/18 12:39:14;;;;;;;10.82;9.43;;;;;;;;;;5074123;28;20130;-70
2021/07/18 12:41:40;;;;;;;10.57;9.48;;;;;;;;;;5074335;28;20055;-70
2021/07/18 12:44:07;;;;;;;10.07;9.05;;;;;;;;;;5074397;28;20079;-70
2021/07/18 12:46:33;;;;;;;12.23;9.15;;;;;;;;;;5074393;28;20045;-70
2021/07/18 12:49:07;;;;;;;10.55;9.13;;;;;;;;;;5073887;28;20051;-69
2021/07/18 12:51:34;;;;;;;12.65;9.15;;;;;;;;;;5071491;28;20071;-69
2021/07/18 12:54:02;;;;;;;11.13;8.98;;;;;;;;;;5054419;28;20132;-70
2021/07/18 12:56:30;;;;;;;10.63;8.70;;;;;;;;;;5053425;28;20045;-70
2021/07/18 12:58:57;;;;;;;9.85;7.75;;;;;;;;;;5073789;28;20095;-70
2021/07/18 13:01:27;;;;;;;9.60;7.78;;;;;;;;;;5073327;28;20071;-70
2021/07/18 13:04:02;;;;;;;9.57;7.25;;;;;;;;;;5073904;28;20045;-70
2021/07/18 13:06:28;;;;;;;;;;;;;;;;;;5074560;28;20055;-70
2021/07/18 13:08:56;;;;;;;8.25;7.25;;;;;;;;;;5073965;28;19920;-70
2021/07/18 13:11:37;;;;;;;8.05;6.85;;;;;;;;;;5073773;28;20066;-70
2021/07/18 13:14:25;;;;;;;8.35;6.95;;;;;;;;;;5073713;28;20137;-70
2021/07/18 13:17:03;;;;;;;10.45;7.15;;;;;;;;;;5073945;28;20568;-70
2021/07/18 13:19:29;;;;;;;12.68;7.43;;;;;;;;;;5067144;28;20044;-70
2021/07/18 13:22:00;;;;;;;7.57;6.47;;;;;;;;;;5073532;28;20052;-70
2021/07/18 13:24:31;;;;;;;7.97;6.72;;;;;;;;;;5073488;28;20137;-70
2021/07/18 13:27:11;;;;;;;8.93;7.18;;;;;;;;;;5073327;28;20048;-70
2021/07/18 13:29:39;;;;;;;10.63;6.57;;;;;;;;;;5073705;28;20053;-70
2021/07/18 13:32:10;;;;;;;10.30;7.07;;;;;;;;;;5073062;28;20049;-70
2021/07/18 13:34:36;;;;;;;8.90;5.93;;;;;;;;;;5073072;28;20060;-70
2021/07/18 13:37:04;;;;;;;6.90;5.88;;;;;;;;;;5072524;28;20051;-70
2021/07/18 13:39:30;;;;;;;8.68;5.90;;;;;;;;;;5072979;28;20477;-70
2021/07/18 13:42:09;;;;;;;7.00;5.60;;;;;;;;;;5073326;28;20049;-70
2021/07/18 13:44:37;;;;;;;8.30;5.88;;;;;;;;;;5072974;28;20058;-70
2021/07/18 13:47:04;;;;;;;8.25;5.65;;;;;;;;;;5072947;28;20045;-70
2021/07/18 13:49:31;;;;;;;8.63;5.90;;;;;;;;;;5073447;28;20045;-70
2021/07/18 13:52:00;;;;;;;6.90;5.00;;;;;;;;;;5073136;28;20448;-70
2021/07/18 13:54:26;;;;;;;5.95;5.20;;;;;;;;;;5073341;28;20052;-70
2021/07/18 13:56:53;;;;;;;6.20;4.22;;;;;;;;;;5073242;28;20596;-70
2021/07/18 13:59:21;;;;;;;6.35;4.57;;;;;;;;;;5072817;28;20059;-70
2021/07/18 14:01:47;;;;;;;5.90;3.72;;;;;;;;;;5072473;28;20485;-70
2021/07/18 14:04:14;;;;;;;7.68;4.38;;;;;;;;;;5072118;28;20060;-70
2021/07/18 14:06:40;;;;;;;5.63;3.45;;;;;;;;;;5072774;28;20052;-70
2021/07/18 14:09:08;;;;;;;5.28;3.53;;;;;;;;;;5072566;28;20048;-70
2021/07/18 14:11:34;;;;;;;4.78;3.28;;;;;;;;;;5072287;28;20148;-70
2021/07/18 14:14:01;;;;;;;5.35;3.30;;;;;;;;;;5072697;28;20049;-70
2021/07/18 14:16:29;;;;;;;7.00;3.30;;;;;;;;;;5068910;28;20068;-70
2021/07/18 14:18:55;;;;;;;6.32;3.03;;;;;;;;;;5070719;28;20055;-71
2021/07/18 14:21:22;;;;;;;5.57;2.80;;;;;;;;;;5071910;28;20048;-70
2021/07/18 14:23:48;;;;;;;5.60;3.03;;;;;;;;;;5052679;28;20052;-70
2021/07/18 14:26:15;;;;;;;4.43;2.70;;;;;;;;;;5052546;28;20064;-71
2021/07/18 14:28:41;;;;;;;6.03;2.90;;;;;;;;;;5052362;28;20052;-70
2021/07/18 14:31:08;;;;;;;6.18;2.50;;;;;;;;;;5056200;28;20048;-70
2021/07/18 14:33:35;;;;;;;4.68;2.60;;;;;;;;;;5071665;28;20049;-70
2021/07/18 14:36:03;;;;;;;5.68;2.58;;;;;;;;;;5072188;28;20052;-70
2021/07/18 14:38:29;;;;;;;6.43;3.55;;;;;;;;;;5071714;28;20040;-70
2021/07/18 14:40:56;;;;;;;5.50;2.90;;;;;;;;;;5071462;28;20052;-70
2021/07/18 14:43:22;;;;;;;5.40;2.95;;;;;;;;;;5071377;28;20056;-68